createdAt,value
2022-08-03T00:00:29.413Z,4.03
2022-08-03T00:02:56.975Z,3.40
2022-08-03T00:05:24.499Z,3.47
2022-08-03T00:07:51.931Z,4.93
2022-08-03T00:10:20.443Z,3.55
2022-08-03T00:12:49.276Z,3.33
2022-08-03T00:15:17.191Z,2.95
2022-08-03T00:17:53.655Z,3.60
2022-08-03T00:20:21.691Z,3.43
2022-08-03T00:22:49.191Z,3.17
2022-08-03T00:25:16.822Z,3.08
2022-08-03T00:27:44.288Z,2.97
2022-08-03T00:30:13.291Z,2.78
2022-08-03T00:32:45.085Z,3.50
2022-08-03T00:35:29.345Z,3.25
2022-08-03T00:40:27.727Z,3.60
2022-08-03T00:42:55.951Z,3.45
2022-08-03T00:45:26.032Z,3.05
2022-08-03T00:47:53.700Z,3.53
2022-08-03T00:50:22.844Z,3.35
2022-08-03T00:52:51.267Z,3.42
2022-08-03T00:55:18.808Z,3.67
2022-08-03T00:57:46.370Z,3.50
2022-08-03T01:00:15.492Z,3.05
2022-08-03T01:02:44.415Z,3.67
2022-08-03T01:05:12.007Z,3.25
2022-08-03T01:07:45.743Z,3.10
2022-08-03T01:10:15.111Z,4.07
2022-08-03T01:12:44.755Z,3.20
2022-08-03T01:15:15.945Z,3.15
2022-08-03T01:17:50.592Z,3.10
2022-08-03T01:20:19.444Z,2.88
2022-08-03T01:23:01.612Z,3.03
2022-08-03T01:25:41.133Z,2.90
2022-08-03T01:28:19.475Z,3.42
2022-08-03T01:30:49.297Z,3.65
2022-08-03T01:33:18.646Z,3.30
2022-08-03T01:35:48.070Z,3.97
2022-08-03T01:38:19.057Z,3.60
2022-08-03T01:40:47.379Z,3.70
2022-08-03T01:43:55.331Z,3.45
2022-08-03T01:46:07.665Z,3.17
2022-08-03T01:48:37.293Z,3.10
2022-08-03T01:51:05.616Z,3.42
2022-08-03T01:53:34.759Z,2.90
2022-08-03T01:56:03.526Z,3.40
2022-08-03T01:58:31.577Z,3.10
2022-08-03T02:01:01.148Z,3.17
2022-08-03T02:03:30.899Z,3.38
2022-08-03T02:06:55.591Z,3.20
2022-08-03T02:08:47.285Z,3.35
2022-08-03T02:11:14.836Z,3.90
2022-08-03T02:13:42.824Z,3.30
2022-08-03T02:16:10.284Z,3.47
2022-08-03T02:18:40.417Z,3.95
2022-08-03T02:21:11.305Z,3.63
2022-08-03T02:23:38.961Z,3.67
2022-08-03T02:26:07.934Z,2.78
2022-08-03T02:28:36.629Z,3.70
2022-08-03T02:31:06.054Z,3.58
2022-08-03T02:33:35.138Z,3.58
2022-08-03T02:36:05.282Z,3.55
2022-08-03T02:38:34.228Z,3.38
2022-08-03T02:41:02.402Z,3.50
2022-08-03T02:43:39.210Z,3.97
2022-08-03T02:46:19.143Z,3.75
2022-08-03T02:48:47.471Z,3.35
2022-08-03T02:51:16.941Z,3.90
2022-08-03T02:53:45.615Z,3.90
2022-08-03T02:56:13.720Z,3.78
2022-08-03T02:58:43.637Z,3.58
2022-08-03T03:01:11.706Z,4.25
2022-08-03T03:03:44.899Z,3.35
2022-08-03T03:06:13.697Z,3.40
2022-08-03T03:08:44.500Z,3.70
2022-08-03T03:11:12.549Z,3.40
2022-08-03T03:13:40.623Z,4.70
2022-08-03T03:16:09.293Z,3.20
2022-08-03T03:18:37.132Z,3.35
2022-08-03T03:23:32.879Z,3.33
2022-08-03T03:26:03.002Z,3.63
2022-08-03T03:28:31.667Z,4.18
2022-08-03T03:30:59.247Z,3.63
2022-08-03T03:33:28.524Z,3.63
2022-08-03T03:35:56.496Z,4.22
2022-08-03T03:38:23.954Z,3.72
2022-08-03T03:40:51.409Z,3.45
2022-08-03T03:43:20.259Z,3.60
2022-08-03T03:45:48.406Z,4.55
2022-08-03T03:48:16.006Z,4.03
2022-08-03T03:50:44.733Z,4.28
2022-08-03T03:53:12.576Z,3.70
2022-08-03T03:58:26.832Z,3.35
2022-08-03T04:00:54.453Z,4.65
2022-08-03T04:03:21.993Z,5.05
2022-08-03T04:06:07.262Z,3.97
2022-08-03T04:08:52.124Z,4.15
2022-08-03T04:11:29.129Z,4.50
2022-08-03T04:14:02.120Z,4.85
2022-08-03T04:16:32.071Z,3.83
2022-08-03T04:19:01.655Z,3.55
2022-08-03T04:21:29.670Z,3.88
2022-08-03T04:23:59.961Z,3.20
2022-08-03T04:26:29.450Z,4.35
2022-08-03T04:28:57.926Z,3.85
2022-08-03T04:31:28.425Z,3.50
2022-08-03T04:33:56.372Z,3.97
2022-08-03T04:38:56.714Z,6.43
2022-08-03T04:41:25.800Z,4.28
2022-08-03T04:43:54.750Z,4.38
2022-08-03T04:46:23.850Z,3.92
2022-08-03T04:48:52.775Z,4.95
2022-08-03T04:51:20.352Z,4.72
2022-08-03T04:53:47.831Z,4.25
2022-08-03T04:56:15.252Z,4.07
2022-08-03T04:58:42.707Z,5.18
2022-08-03T05:01:10.436Z,4.18
2022-08-03T05:03:37.965Z,4.20
2022-08-03T05:06:10.973Z,4.20
2022-08-03T05:08:46.087Z,3.60
2022-08-03T05:11:14.445Z,3.60
2022-08-03T05:13:41.847Z,4.43
2022-08-03T05:16:09.409Z,4.07
2022-08-03T05:18:37.023Z,4.55
2022-08-03T05:21:04.910Z,3.75
2022-08-03T05:23:33.761Z,4.65
2022-08-03T05:26:01.212Z,4.00
2022-08-03T05:28:28.696Z,3.97
2022-08-03T05:30:56.148Z,3.70
2022-08-03T05:33:23.761Z,3.95
2022-08-03T05:36:00.652Z,3.90
2022-08-03T05:38:35.082Z,3.53
2022-08-03T05:41:21.924Z,3.90
2022-08-03T05:43:51.536Z,4.38
2022-08-03T05:46:19.080Z,4.35
2022-08-03T05:48:46.501Z,4.32
2022-08-03T05:51:13.930Z,4.40
2022-08-03T05:53:41.835Z,4.78
2022-08-03T05:58:43.898Z,5.03
2022-08-03T06:01:11.368Z,3.47
2022-08-03T06:03:38.866Z,3.80
2022-08-03T06:06:06.432Z,3.78
2022-08-03T06:08:33.884Z,3.70
2022-08-03T06:11:01.400Z,3.53
2022-08-03T06:13:28.827Z,4.55
2022-08-03T06:15:57.617Z,3.90
2022-08-03T06:18:25.160Z,3.35
2022-08-03T06:20:52.834Z,2.53
2022-08-03T06:23:20.353Z,3.15
2022-08-03T06:25:48.327Z,2.65
2022-08-03T06:31:06.618Z,2.83
2022-08-03T06:34:30.489Z,3.00
2022-08-03T06:38:49.056Z,2.90
2022-08-03T06:41:16.511Z,2.80
2022-08-03T06:44:03.241Z,2.20
2022-08-03T06:49:00.159Z,2.60
2022-08-03T06:52:03.718Z,2.42
2022-08-03T06:56:42.334Z,3.28
2022-08-03T06:59:09.910Z,2.25
2022-08-03T07:01:57.413Z,2.92
2022-08-03T07:04:26.261Z,2.40
2022-08-03T07:06:54.172Z,3.10
2022-08-03T07:09:21.647Z,2.13
2022-08-03T07:11:49.109Z,2.85
2022-08-03T07:14:16.611Z,2.88
2022-08-03T07:16:44.085Z,2.65
2022-08-03T07:19:12.184Z,2.40
2022-08-03T07:21:41.025Z,2.15
2022-08-03T07:24:08.503Z,2.35
2022-08-03T07:26:35.963Z,2.35
2022-08-03T07:29:03.987Z,2.92
2022-08-03T07:31:42.167Z,2.60
2022-08-03T07:34:09.658Z,3.35
2022-08-03T07:36:37.098Z,2.78
2022-08-03T07:39:15.343Z,2.45
2022-08-03T07:41:45.169Z,2.47
2022-08-03T07:44:12.700Z,2.17
2022-08-03T07:46:40.200Z,2.60
2022-08-03T07:49:07.712Z,2.63
2022-08-03T07:54:02.663Z,2.65
2022-08-03T07:56:31.673Z,2.22
2022-08-03T07:58:59.685Z,2.67
2022-08-03T08:01:27.275Z,3.08
2022-08-03T08:06:22.591Z,2.33
2022-08-03T08:08:50.175Z,3.05
2022-08-03T08:11:17.591Z,2.47
2022-08-03T08:13:46.346Z,2.42
2022-08-03T08:16:13.779Z,2.30
2022-08-03T08:18:41.206Z,3.60
2022-08-03T08:21:08.812Z,2.85
2022-08-03T08:23:43.448Z,2.30
2022-08-03T08:26:12.454Z,2.50
2022-08-03T08:31:08.529Z,2.25
2022-08-03T08:34:03.302Z,2.17
2022-08-03T08:36:23.929Z,2.58
2022-08-03T08:38:51.359Z,2.15
2022-08-03T08:41:19.338Z,4.13
2022-08-03T08:43:46.873Z,2.30
2022-08-03T08:48:53.867Z,2.05
2022-08-03T08:51:22.353Z,2.30
2022-08-03T08:53:51.711Z,2.67
2022-08-03T08:56:19.339Z,2.17
2022-08-03T09:16:13.457Z,2.40
2022-08-03T09:18:41.896Z,2.03
2022-08-03T09:21:33.535Z,2.80
2022-08-03T09:24:04.852Z,2.33
2022-08-03T09:26:34.165Z,2.20
2022-08-03T09:29:07.117Z,2.15
2022-08-03T09:31:43.712Z,2.30
2022-08-03T09:34:12.398Z,2.40
2022-08-03T09:36:40.822Z,2.20
2022-08-03T09:39:10.956Z,2.25
2022-08-03T09:41:43.702Z,2.17
2022-08-03T09:44:24.581Z,1.90
2022-08-03T09:46:55.489Z,2.20
2022-08-03T09:49:23.358Z,1.88
2022-08-03T09:52:32.646Z,2.00
2022-08-03T09:54:38.548Z,1.92
2022-08-03T09:57:06.122Z,1.80
2022-08-03T10:02:02.511Z,1.90
2022-08-03T10:04:30.061Z,1.65
2022-08-03T10:09:24.811Z,2.05
2022-08-03T10:11:52.377Z,1.98
2022-08-03T10:16:47.909Z,2.35
2022-08-03T10:19:17.324Z,1.92
2022-08-03T10:21:48.688Z,1.98
2022-08-03T10:24:17.175Z,1.80
2022-08-03T10:26:49.958Z,1.77
2022-08-03T10:29:22.283Z,1.40
2022-08-03T10:31:57.646Z,1.80
2022-08-03T10:34:28.438Z,1.85
2022-08-03T10:36:57.793Z,2.47
2022-08-03T10:39:28.505Z,2.00
2022-08-03T10:41:58.178Z,1.50
2022-08-03T10:44:27.037Z,3.10
2022-08-03T10:46:55.577Z,2.22
2022-08-03T10:49:34.030Z,1.67
2022-08-03T10:52:09.683Z,1.95
2022-08-03T10:55:10.887Z,1.75
2022-08-03T10:57:43.381Z,1.55
2022-08-03T11:00:13.188Z,1.90
2022-08-03T11:02:59.335Z,1.92
2022-08-03T11:05:27.340Z,2.55
2022-08-03T11:08:09.652Z,2.20
2022-08-03T11:10:38.607Z,1.90
2022-08-03T11:13:07.615Z,2.10
2022-08-03T11:15:35.933Z,2.45
2022-08-03T11:18:11.025Z,2.42
2022-08-03T11:20:45.805Z,2.38
2022-08-03T11:23:13.773Z,3.25
2022-08-03T11:26:00.148Z,2.00
2022-08-03T11:28:30.698Z,2.25
2022-08-03T11:30:58.391Z,2.55
2022-08-03T11:33:32.114Z,2.97
2022-08-03T11:36:00.067Z,2.28
2022-08-03T11:38:27.564Z,2.38
2022-08-03T11:40:55.418Z,2.40
2022-08-03T11:43:45.133Z,2.17
2022-08-03T11:46:28.183Z,1.95
2022-08-03T11:49:09.069Z,2.38
2022-08-03T11:51:38.654Z,2.40
2022-08-03T11:54:06.852Z,2.30
2022-08-03T11:56:45.269Z,1.92
2022-08-03T11:59:20.582Z,2.58
2022-08-03T12:01:50.786Z,1.90
2022-08-03T12:04:18.277Z,2.00
2022-08-03T12:06:59.132Z,1.90
2022-08-03T12:09:26.653Z,2.03
2022-08-03T12:12:00.881Z,1.60
2022-08-03T12:14:50.980Z,2.53
2022-08-03T12:17:18.242Z,1.95
2022-08-03T12:19:45.923Z,1.95
2022-08-03T12:22:13.521Z,2.10
2022-08-03T12:24:41.618Z,2.20
2022-08-03T12:27:09.122Z,1.95
2022-08-03T12:29:36.891Z,1.85
2022-08-03T12:32:04.497Z,1.88
2022-08-03T12:34:48.547Z,2.00
2022-08-03T12:37:22.130Z,2.05
2022-08-03T12:40:02.272Z,1.70
2022-08-03T12:42:34.978Z,1.77
2022-08-03T12:45:17.577Z,1.83
2022-08-03T12:47:51.744Z,2.00
2022-08-03T12:50:26.495Z,1.90
2022-08-03T12:52:53.931Z,1.15
2022-08-03T12:55:21.881Z,1.30
2022-08-03T12:57:49.406Z,1.30
2022-08-03T13:00:21.704Z,1.33
2022-08-03T13:03:26.575Z,1.52
2022-08-03T13:05:49.367Z,1.80
2022-08-03T13:08:20.718Z,1.42
2022-08-03T13:10:48.466Z,2.28
2022-08-03T13:13:15.882Z,1.55
2022-08-03T13:15:48.194Z,1.58
2022-08-03T13:18:17.542Z,1.80
2022-08-03T13:20:45.559Z,1.30
2022-08-03T13:23:22.037Z,1.30
2022-08-03T13:25:55.862Z,1.38
2022-08-03T13:28:23.711Z,1.05
2022-08-03T13:30:51.244Z,1.77
2022-08-03T13:33:18.737Z,1.55
2022-08-03T13:35:46.133Z,1.85
2022-08-03T13:38:15.178Z,1.23
2022-08-03T13:40:42.735Z,1.13
2022-08-03T13:43:13.529Z,1.10
2022-08-03T13:45:42.189Z,1.15
2022-08-03T13:48:11.052Z,1.23
2022-08-03T13:50:42.616Z,1.08
2022-08-03T13:53:10.583Z,1.50
2022-08-03T13:55:39.414Z,1.23
2022-08-03T13:58:07.960Z,1.58
2022-08-03T14:00:35.544Z,1.42
2022-08-03T14:03:10.785Z,1.40
2022-08-03T14:05:40.200Z,1.60
2022-08-03T14:08:08.053Z,1.00
2022-08-03T14:10:36.259Z,1.33
2022-08-03T14:13:05.476Z,1.30
2022-08-03T14:15:37.635Z,1.23
2022-08-03T14:18:06.028Z,1.33
2022-08-03T14:20:38.513Z,1.60
2022-08-03T14:23:15.054Z,1.38
2022-08-03T14:25:44.533Z,1.30
2022-08-03T14:28:19.728Z,1.30
2022-08-03T14:30:48.406Z,1.50
2022-08-03T14:33:15.924Z,1.45
2022-08-03T14:35:43.695Z,1.23
2022-08-03T14:38:11.123Z,1.20
2022-08-03T14:40:38.577Z,1.48
2022-08-03T14:43:06.069Z,1.80
2022-08-03T14:45:34.979Z,1.63
2022-08-03T14:50:27.891Z,1.30
2022-08-03T14:50:51.647Z,1.80
2022-08-03T14:53:19.873Z,1.30
2022-08-03T14:55:50.471Z,1.80
2022-08-03T14:58:20.539Z,1.20
2022-08-03T15:00:50.717Z,1.20
2022-08-03T15:03:20.123Z,1.40
2022-08-03T15:05:47.790Z,1.35
2022-08-03T15:08:15.221Z,1.50
2022-08-03T15:10:44.063Z,1.50
2022-08-03T15:13:12.501Z,1.45
2022-08-03T15:15:39.981Z,1.48
2022-08-03T15:18:08.829Z,1.40
2022-08-03T15:20:44.268Z,1.45
2022-08-03T15:23:12.782Z,1.13
2022-08-03T15:26:03.829Z,1.48
2022-08-03T15:28:27.964Z,1.80
2022-08-03T15:30:55.422Z,1.52
2022-08-03T15:33:24.193Z,1.38
2022-08-03T15:35:52.871Z,1.88
2022-08-03T15:38:22.797Z,1.70
2022-08-03T15:40:54.368Z,1.40
2022-08-03T15:43:22.242Z,1.60
2022-08-03T15:45:54.711Z,2.00
2022-08-03T15:48:38.472Z,1.40
2022-08-03T15:51:06.210Z,1.42
2022-08-03T15:53:34.288Z,1.60
2022-08-03T15:56:05.221Z,1.42
2022-08-03T15:59:03.522Z,1.55
2022-08-03T16:01:22.929Z,1.35
2022-08-03T16:03:51.957Z,1.73
2022-08-03T16:06:19.496Z,1.65
2022-08-03T16:08:57.481Z,1.48
2022-08-03T16:11:25.170Z,1.60
2022-08-03T16:14:13.234Z,1.60
2022-08-03T16:16:40.939Z,1.38
2022-08-03T16:19:10.142Z,1.77
2022-08-03T16:21:38.601Z,1.80
2022-08-03T16:24:17.545Z,1.20
2022-08-03T16:26:47.428Z,1.42
2022-08-03T16:29:22.578Z,1.38
2022-08-03T16:31:51.801Z,1.57
2022-08-03T16:34:21.439Z,1.60
2022-08-03T16:36:48.897Z,1.60
2022-08-03T16:39:16.383Z,1.70
2022-08-03T16:41:54.119Z,1.70
2022-08-03T16:44:28.962Z,1.65
2022-08-03T16:46:56.430Z,2.72
2022-08-03T16:49:53.692Z,1.70
2022-08-03T16:52:13.019Z,1.33
2022-08-03T16:54:40.904Z,1.35
2022-08-03T16:57:12.470Z,1.55
2022-08-03T16:59:40.549Z,1.80
2022-08-03T17:02:10.562Z,1.52
2022-08-03T17:04:40.949Z,1.40
2022-08-03T17:07:13.149Z,1.60
2022-08-03T17:09:41.770Z,1.48
2022-08-03T17:12:20.959Z,1.27
2022-08-03T17:14:48.432Z,0.90
2022-08-03T17:19:47.188Z,1.48
2022-08-03T17:22:16.377Z,1.75
2022-08-03T17:24:45.782Z,1.25
2022-08-03T17:28:41.934Z,1.65
2022-08-03T17:30:07.710Z,1.17
2022-08-03T17:32:42.412Z,1.50
2022-08-03T17:35:11.894Z,1.73
2022-08-03T17:37:57.540Z,1.25
2022-08-03T17:40:26.349Z,1.33
2022-08-03T17:42:54.464Z,1.98
2022-08-03T17:47:57.792Z,1.45
2022-08-03T17:50:29.933Z,1.50
2022-08-03T17:53:07.249Z,1.10
2022-08-03T17:55:56.993Z,1.85
2022-08-03T17:58:32.140Z,1.40
2022-08-03T18:02:01.973Z,1.50
2022-08-03T18:04:21.779Z,1.00
2022-08-03T18:07:00.310Z,1.73
2022-08-03T18:10:03.805Z,1.63
2022-08-03T18:12:27.926Z,1.80
2022-08-03T18:15:01.246Z,1.60
2022-08-03T18:17:58.392Z,1.83
2022-08-03T18:20:34.438Z,1.52
2022-08-03T18:23:07.790Z,1.40
2022-08-03T18:25:44.966Z,1.63
2022-08-03T18:28:18.770Z,2.22
2022-08-03T18:30:54.326Z,1.48
2022-08-03T18:34:19.660Z,1.38
2022-08-03T18:36:11.257Z,1.55
2022-08-03T18:38:47.031Z,1.40
2022-08-03T18:41:19.648Z,1.73
2022-08-03T18:44:06.477Z,1.50
2022-08-03T18:46:41.021Z,1.77
2022-08-03T18:49:12.581Z,1.92
2022-08-03T18:51:43.179Z,2.03
2022-08-03T18:54:45.897Z,2.08
2022-08-03T18:57:07.328Z,2.10
2022-08-03T18:59:40.381Z,2.17
2022-08-03T19:02:09.217Z,2.42
2022-08-03T19:04:41.140Z,2.17
2022-08-03T19:07:11.219Z,2.42
2022-08-03T19:09:47.804Z,1.88
2022-08-03T19:12:31.012Z,3.05
2022-08-03T19:15:05.578Z,3.70
2022-08-03T19:17:41.319Z,3.42
2022-08-03T19:20:10.198Z,2.88
2022-08-03T19:22:38.277Z,2.03
2022-08-03T19:25:07.972Z,2.75
2022-08-03T19:27:40.580Z,2.67
2022-08-03T19:30:20.108Z,2.70
2022-08-03T19:32:53.949Z,2.53
2022-08-03T19:35:51.805Z,3.28
2022-08-03T19:38:09.775Z,3.20
2022-08-03T19:40:42.354Z,3.05
2022-08-03T19:43:21.470Z,2.17
2022-08-03T19:46:04.467Z,2.20
2022-08-03T19:48:34.644Z,1.83
2022-08-03T19:51:04.491Z,1.90
2022-08-03T19:53:44.928Z,1.73
2022-08-03T19:56:15.190Z,1.95
2022-08-03T19:58:43.815Z,2.00
2022-08-03T20:01:21.156Z,1.63
2022-08-03T20:03:49.657Z,1.48
2022-08-03T20:06:17.564Z,2.10
2022-08-03T20:08:45.088Z,2.53
2022-08-03T20:11:17.140Z,2.08
2022-08-03T20:13:48.975Z,1.90
2022-08-03T20:16:16.380Z,3.42
2022-08-03T20:18:43.828Z,1.90
2022-08-03T20:21:15.338Z,2.22
2022-08-03T20:24:03.267Z,2.42
2022-08-03T20:26:33.469Z,1.55
2022-08-03T20:29:09.048Z,2.10
2022-08-03T20:31:38.245Z,3.27
2022-08-03T20:34:06.184Z,1.80
2022-08-03T20:36:33.663Z,1.58
2022-08-03T20:39:01.915Z,1.92
2022-08-03T20:41:36.822Z,1.88
2022-08-03T20:44:05.212Z,1.75
2022-08-03T20:46:41.762Z,2.13
2022-08-03T20:49:19.431Z,2.28
2022-08-03T20:51:53.111Z,2.13
2022-08-03T20:54:29.341Z,2.00
2022-08-03T20:56:59.650Z,1.73
2022-08-03T20:59:34.823Z,2.25
2022-08-03T21:02:19.204Z,2.30
2022-08-03T21:04:47.713Z,1.90
2022-08-03T21:07:17.560Z,2.42
2022-08-03T21:09:49.663Z,2.60
2022-08-03T21:12:26.980Z,2.35
2022-08-03T21:15:00.007Z,2.20
2022-08-03T21:17:40.080Z,2.80
2022-08-03T21:20:09.456Z,2.95
2022-08-03T21:22:37.937Z,2.35
2022-08-03T21:25:07.333Z,2.80
2022-08-03T21:27:36.775Z,2.35
2022-08-03T21:30:10.480Z,2.20
2022-08-03T21:32:40.218Z,2.60
2022-08-03T21:35:10.210Z,2.80
2022-08-03T21:37:38.973Z,2.38
2022-08-03T21:40:07.089Z,2.63
2022-08-03T21:42:36.059Z,3.47
2022-08-03T21:45:05.222Z,2.88
2022-08-03T21:47:36.836Z,2.55
2022-08-03T21:50:09.411Z,3.58
2022-08-03T21:52:41.624Z,2.97
2022-08-03T21:55:18.464Z,2.90
2022-08-03T21:57:52.556Z,3.42
2022-08-03T22:00:21.428Z,2.92
2022-08-03T22:02:54.425Z,4.70
2022-08-03T22:05:43.007Z,3.67
2022-08-03T22:08:10.959Z,3.45
2022-08-03T22:10:38.957Z,3.47
2022-08-03T22:13:07.937Z,3.22
2022-08-03T22:15:35.445Z,4.45
2022-08-03T22:18:03.501Z,3.75
2022-08-03T22:20:31.158Z,4.38
2022-08-03T22:23:01.496Z,3.50
2022-08-03T22:25:30.440Z,3.13
2022-08-03T22:27:59.445Z,3.97
2022-08-03T22:30:28.284Z,3.38
2022-08-03T22:32:56.132Z,4.50
2022-08-03T22:37:53.295Z,3.20
2022-08-03T22:40:20.778Z,2.78
2022-08-03T22:42:51.991Z,2.85
2022-08-03T22:45:45.782Z,3.47
2022-08-03T22:50:36.482Z,2.50
2022-08-03T22:53:04.428Z,2.78
2022-08-03T22:55:32.010Z,3.10
2022-08-03T22:57:59.488Z,3.38
2022-08-03T23:00:26.996Z,3.38
2022-08-03T23:02:55.408Z,2.85
2022-08-03T23:06:01.156Z,3.08
2022-08-03T23:08:15.535Z,4.72
2022-08-03T23:10:47.000Z,2.63
2022-08-03T23:13:15.516Z,3.33
2022-08-03T23:15:43.427Z,2.90
2022-08-03T23:18:11.028Z,3.55
2022-08-03T23:20:38.665Z,3.80
2022-08-03T23:23:06.201Z,3.85
2022-08-03T23:25:41.259Z,3.70
2022-08-03T23:28:09.741Z,3.33
2022-08-03T23:30:38.215Z,3.83
2022-08-03T23:33:07.497Z,3.03
2022-08-03T23:36:20.046Z,3.83
2022-08-03T23:38:40.634Z,2.97
2022-08-03T23:41:10.195Z,3.17
2022-08-03T23:43:51.197Z,3.40
2022-08-03T23:46:21.008Z,3.13
2022-08-03T23:48:48.490Z,2.97
2022-08-03T23:51:20.499Z,3.53
2022-08-03T23:53:52.617Z,3.15
2022-08-03T23:56:24.904Z,3.03
2022-08-03T23:59:01.055Z,3.33
